createdAt,value
2018-07-25T00:02:25.182Z,9.83
2018-07-25T00:04:52.690Z,8.87
2018-07-25T00:07:20.499Z,8.47
2018-07-25T00:09:48.438Z,10.97
2018-07-25T00:12:16.314Z,9.93
2018-07-25T00:14:44.472Z,8.00
2018-07-25T00:17:12.001Z,9.10
2018-07-25T00:19:39.922Z,7.77
2018-07-25T00:22:07.977Z,9.97
2018-07-25T00:24:36.426Z,10.33
2018-07-25T00:27:04.446Z,10.50
2018-07-25T00:29:31.972Z,9.27
2018-07-25T00:32:00.402Z,9.50
2018-07-25T00:34:27.914Z,9.93
2018-07-25T00:36:55.411Z,9.50
2018-07-25T00:39:23.204Z,8.60
2018-07-25T00:41:50.700Z,9.93
2018-07-25T00:44:18.508Z,10.13
2018-07-25T00:46:46.051Z,8.50
2018-07-25T00:49:14.868Z,8.17
2018-07-25T00:51:42.386Z,8.60
2018-07-25T00:54:09.892Z,10.00
2018-07-25T00:56:37.417Z,10.50
2018-07-25T00:59:05.750Z,12.43
2018-07-25T01:01:33.254Z,11.17
2018-07-25T01:04:00.782Z,9.70
2018-07-25T01:06:28.373Z,10.00
2018-07-25T01:08:56.470Z,8.50
2018-07-25T01:11:24.590Z,8.13
2018-07-25T01:13:53.190Z,7.23
2018-07-25T01:16:21.110Z,8.50
2018-07-25T01:18:48.596Z,7.67
2018-07-25T01:21:16.473Z,7.90
2018-07-25T01:23:44.562Z,8.17
2018-07-25T01:26:12.646Z,8.07
2018-07-25T01:28:40.070Z,7.90
2018-07-25T01:31:08.070Z,8.60
2018-07-25T01:33:35.550Z,9.73
2018-07-25T01:36:03.103Z,8.40
2018-07-25T01:38:30.735Z,7.70
2018-07-25T01:40:58.290Z,7.13
2018-07-25T01:43:26.465Z,8.40
2018-07-25T01:45:54.033Z,8.43
2018-07-25T01:48:21.942Z,7.43
2018-07-25T01:50:49.912Z,10.57
2018-07-25T01:53:17.427Z,8.87
2018-07-25T01:55:45.286Z,8.50
2018-07-25T01:58:13.537Z,7.50
2018-07-25T02:00:41.326Z,7.47
2018-07-25T02:03:08.840Z,8.50
2018-07-25T02:05:36.398Z,7.60
2018-07-25T02:08:04.515Z,7.10
2018-07-25T02:10:36.569Z,7.67
2018-07-25T02:13:05.269Z,7.03
2018-07-25T02:15:32.809Z,7.80
2018-07-25T02:18:00.332Z,8.50
2018-07-25T02:20:27.847Z,8.20
2018-07-25T02:22:55.723Z,8.23
2018-07-25T02:25:23.724Z,9.40
2018-07-25T02:27:52.771Z,8.57
2018-07-25T02:30:20.923Z,12.00
2018-07-25T02:32:48.446Z,11.30
2018-07-25T02:35:15.955Z,9.63
2018-07-25T02:37:43.831Z,8.63
2018-07-25T02:40:11.324Z,8.73
2018-07-25T02:42:38.943Z,8.80
2018-07-25T02:45:06.944Z,9.40
2018-07-25T02:47:34.856Z,9.63
2018-07-25T02:50:02.803Z,11.40
2018-07-25T02:52:30.614Z,9.47
2018-07-25T02:54:58.578Z,8.47
2018-07-25T02:57:26.118Z,8.97
2018-07-25T02:59:54.182Z,9.00
2018-07-25T03:02:21.708Z,11.30
2018-07-25T03:04:49.860Z,9.87
2018-07-25T03:07:17.355Z,10.80
2018-07-25T03:09:45.129Z,9.00
2018-07-25T03:12:13.056Z,7.60
2018-07-25T03:14:40.606Z,8.47
2018-07-25T03:17:08.694Z,7.80
2018-07-25T03:19:36.294Z,7.23
2018-07-25T03:22:04.150Z,8.67
2018-07-25T03:24:32.412Z,8.03
2018-07-25T03:27:00.492Z,11.60
2018-07-25T03:29:27.993Z,10.93
2018-07-25T03:31:55.483Z,8.43
2018-07-25T03:34:23.059Z,8.10
2018-07-25T03:36:50.563Z,8.70
2018-07-25T03:39:18.143Z,10.00
2018-07-25T03:41:45.672Z,8.53
2018-07-25T03:44:13.943Z,8.20
2018-07-25T03:46:41.476Z,9.10
2018-07-25T03:49:09.587Z,9.53
2018-07-25T03:51:37.095Z,11.90
2018-07-25T03:54:05.207Z,12.10
2018-07-25T03:56:32.737Z,11.40
2018-07-25T03:59:00.259Z,9.50
2018-07-25T04:01:28.754Z,9.20
2018-07-25T04:03:56.952Z,12.30
2018-07-25T04:06:24.464Z,10.50
2018-07-25T04:08:52.351Z,9.10
2018-07-25T04:11:19.882Z,7.23
2018-07-25T04:13:47.912Z,8.10
2018-07-25T04:16:15.871Z,10.80
2018-07-25T04:18:43.394Z,9.97
2018-07-25T04:21:10.899Z,8.27
2018-07-25T04:23:38.856Z,7.47
2018-07-25T04:26:06.960Z,7.80
2018-07-25T04:28:34.823Z,11.00
2018-07-25T04:31:02.347Z,10.03
2018-07-25T04:33:29.915Z,10.20
2018-07-25T04:35:57.435Z,10.30
2018-07-25T04:38:25.002Z,9.13
2018-07-25T04:40:53.153Z,8.20
2018-07-25T04:43:20.664Z,9.93
2018-07-25T04:45:48.432Z,11.80
2018-07-25T04:48:16.464Z,12.17
2018-07-25T04:50:44.450Z,12.27
2018-07-25T04:53:12.356Z,10.37
2018-07-25T04:55:39.849Z,10.00
2018-07-25T04:58:07.362Z,9.57
2018-07-25T05:00:34.907Z,11.00
2018-07-25T05:03:02.422Z,11.77
2018-07-25T05:05:31.054Z,11.97
2018-07-25T05:07:59.050Z,11.30
2018-07-25T05:10:26.562Z,11.67
2018-07-25T05:12:54.522Z,12.80
2018-07-25T05:15:22.096Z,13.20
2018-07-25T05:17:49.604Z,12.67
2018-07-25T05:20:17.155Z,12.23
2018-07-25T05:22:45.496Z,12.53
2018-07-25T05:25:13.324Z,12.67
2018-07-25T05:27:41.192Z,12.33
2018-07-25T05:30:08.744Z,12.00
2018-07-25T05:32:36.270Z,12.43
2018-07-25T05:35:04.063Z,11.17
2018-07-25T05:37:31.937Z,10.27
2018-07-25T05:39:59.786Z,12.30
2018-07-25T05:42:27.334Z,12.40
2018-07-25T05:44:55.454Z,11.13
2018-07-25T05:47:23.433Z,13.03
2018-07-25T05:49:51.571Z,11.30
2018-07-25T05:52:19.138Z,12.07
2018-07-25T05:54:47.243Z,12.07
2018-07-25T05:57:14.729Z,11.70
2018-07-25T05:59:42.234Z,12.10
2018-07-25T06:02:10.127Z,11.30
2018-07-25T06:04:38.267Z,11.93
2018-07-25T06:07:06.310Z,11.10
2018-07-25T06:09:33.876Z,12.10
2018-07-25T06:12:02.148Z,10.20
2018-07-25T06:14:29.679Z,12.20
2018-07-25T06:16:57.223Z,11.17
2018-07-25T06:19:24.750Z,10.37
2018-07-25T06:21:52.814Z,11.87
2018-07-25T06:24:20.268Z,12.40
2018-07-25T06:26:48.127Z,12.00
2018-07-25T06:29:17.083Z,12.00
2018-07-25T06:31:44.578Z,11.37
2018-07-25T06:34:12.123Z,12.10
2018-07-25T06:36:40.592Z,11.60
2018-07-25T06:39:09.990Z,11.27
2018-07-25T06:41:38.547Z,11.57
2018-07-25T06:44:06.703Z,11.43
2018-07-25T06:46:34.531Z,12.20
2018-07-25T06:49:02.488Z,11.67
2018-07-25T06:51:30.000Z,11.40
2018-07-25T06:53:57.944Z,11.27
2018-07-25T06:56:25.455Z,11.80
2018-07-25T06:58:52.974Z,11.60
2018-07-25T07:01:21.315Z,11.07
2018-07-25T07:03:49.771Z,12.00
2018-07-25T07:06:17.312Z,10.00
2018-07-25T07:08:44.811Z,10.77
2018-07-25T07:11:12.849Z,11.10
2018-07-25T07:13:40.712Z,10.57
2018-07-25T07:16:08.243Z,11.10
2018-07-25T07:18:35.753Z,10.83
2018-07-25T07:21:03.315Z,11.10
2018-07-25T07:23:31.344Z,11.70
2018-07-25T07:25:59.920Z,10.77
2018-07-25T07:28:28.063Z,11.20
2018-07-25T07:30:57.104Z,10.70
2018-07-25T07:33:25.072Z,10.17
2018-07-25T07:35:52.576Z,11.07
2018-07-25T07:38:20.078Z,10.73
2018-07-25T07:40:48.320Z,11.87
2018-07-25T07:43:16.323Z,10.20
2018-07-25T07:45:44.171Z,10.07
2018-07-25T07:48:11.795Z,9.20
2018-07-25T07:50:39.313Z,10.53
2018-07-25T07:53:06.939Z,10.50
2018-07-25T07:55:35.235Z,9.70
2018-07-25T07:58:02.820Z,10.47
2018-07-25T08:00:30.735Z,10.10
2018-07-25T08:02:59.123Z,10.57
2018-07-25T08:05:26.696Z,10.40
2018-07-25T08:07:54.211Z,9.50
2018-07-25T08:10:21.767Z,10.10
2018-07-25T08:12:49.787Z,9.83
2018-07-25T08:15:17.323Z,9.80
2018-07-25T08:17:44.924Z,9.83
2018-07-25T08:20:12.823Z,9.50
2018-07-25T08:22:40.712Z,10.00
2018-07-25T08:25:08.839Z,9.90
2018-07-25T08:27:36.723Z,11.43
2018-07-25T08:30:05.291Z,10.93
2018-07-25T08:32:32.816Z,9.30
2018-07-25T08:35:00.832Z,8.93
2018-07-25T08:37:28.704Z,7.87
2018-07-25T08:39:56.616Z,8.23
2018-07-25T08:42:24.132Z,8.53
2018-07-25T08:44:52.048Z,7.67
2018-07-25T08:47:19.542Z,8.87
2018-07-25T08:49:47.107Z,9.37
2018-07-25T08:52:14.623Z,9.83
2018-07-25T08:54:42.875Z,8.43
2018-07-25T08:57:11.363Z,7.73
2018-07-25T08:59:38.912Z,10.00
2018-07-25T09:02:06.559Z,8.40
2018-07-25T09:04:34.120Z,9.03
2018-07-25T09:07:02.244Z,9.37
2018-07-25T09:09:29.834Z,8.03
2018-07-25T09:11:58.191Z,7.37
2018-07-25T09:14:25.651Z,7.20
2018-07-25T09:16:53.648Z,8.50
2018-07-25T09:19:21.154Z,10.27
2018-07-25T09:21:49.003Z,9.50
2018-07-25T09:24:16.512Z,9.80
2018-07-25T09:26:44.502Z,8.83
2018-07-25T09:29:12.775Z,9.23
2018-07-25T09:31:40.243Z,9.30
2018-07-25T09:34:07.795Z,8.90
2018-07-25T09:36:36.040Z,9.00
2018-07-25T09:39:07.231Z,8.80
2018-07-25T09:41:34.770Z,8.97
2018-07-25T09:44:02.810Z,7.80
2018-07-25T09:46:30.477Z,8.00
2018-07-25T09:48:59.010Z,9.43
2018-07-25T09:51:26.490Z,7.60
2018-07-25T09:53:54.379Z,7.10
2018-07-25T09:56:22.581Z,6.70
2018-07-25T09:58:50.155Z,6.20
2018-07-25T10:01:17.657Z,7.20
2018-07-25T10:03:45.176Z,7.23
2018-07-25T10:06:13.431Z,7.50
2018-07-25T10:08:41.536Z,7.03
2018-07-25T10:11:09.105Z,9.00
2018-07-25T10:13:36.936Z,9.20
2018-07-25T10:16:04.843Z,7.53
2018-07-25T10:18:32.355Z,8.17
2018-07-25T10:21:00.341Z,8.10
2018-07-25T10:23:28.196Z,8.50
2018-07-25T10:25:56.114Z,7.73
2018-07-25T10:28:23.654Z,7.57
2018-07-25T10:30:51.216Z,7.00
2018-07-25T10:33:19.232Z,7.17
2018-07-25T10:35:47.144Z,7.83
2018-07-25T10:38:14.608Z,7.60
2018-07-25T10:40:42.147Z,8.80
2018-07-25T10:43:10.269Z,8.70
2018-07-25T10:45:38.250Z,8.83
2018-07-25T10:48:05.858Z,8.27
2018-07-25T10:50:33.393Z,7.50
2018-07-25T10:53:01.633Z,9.40
2018-07-25T10:55:29.110Z,8.90
2018-07-25T10:57:56.672Z,8.27
2018-07-25T11:00:24.228Z,9.20
2018-07-25T11:02:51.747Z,8.87
2018-07-25T11:05:19.737Z,8.90
2018-07-25T11:07:48.040Z,9.43
2018-07-25T11:10:15.494Z,8.33
2018-07-25T11:12:43.733Z,8.67
2018-07-25T11:15:11.888Z,9.07
2018-07-25T11:17:39.440Z,9.40
2018-07-25T11:20:07.136Z,10.07
2018-07-25T11:22:35.376Z,8.50
2018-07-25T11:25:03.417Z,9.60
2018-07-25T11:27:31.536Z,8.47
2018-07-25T11:29:59.449Z,7.63
2018-07-25T11:32:27.001Z,8.20
2018-07-25T11:34:54.880Z,8.60
2018-07-25T11:37:22.388Z,8.23
2018-07-25T11:39:49.888Z,8.73
2018-07-25T11:42:17.872Z,7.73
2018-07-25T11:44:45.924Z,7.80
2018-07-25T11:47:13.457Z,7.73
2018-07-25T11:49:41.328Z,7.53
2018-07-25T11:52:08.837Z,8.83
2018-07-25T11:54:36.987Z,6.90
2018-07-25T11:57:04.603Z,6.50
2018-07-25T11:59:32.117Z,7.60
2018-07-25T12:01:59.971Z,7.03
2018-07-25T12:04:27.995Z,7.87
2018-07-25T12:06:55.547Z,8.50
2018-07-25T12:09:23.083Z,8.13
2018-07-25T12:11:50.648Z,8.70
2018-07-25T12:14:19.122Z,8.03
2018-07-25T12:16:46.699Z,9.70
2018-07-25T12:19:14.640Z,8.80
2018-07-25T12:21:43.368Z,8.73
2018-07-25T12:24:10.888Z,8.77
2018-07-25T12:26:39.008Z,8.50
2018-07-25T12:29:07.129Z,7.60
2018-07-25T12:31:34.999Z,8.00
2018-07-25T12:34:02.602Z,8.90
2018-07-25T12:36:30.127Z,8.37
2018-07-25T12:38:58.083Z,8.03
2018-07-25T12:41:25.618Z,7.60
2018-07-25T12:43:53.753Z,8.93
2018-07-25T12:46:21.268Z,8.40
2018-07-25T12:48:49.176Z,8.47
2018-07-25T12:51:17.119Z,6.77
2018-07-25T12:53:44.757Z,7.70
2018-07-25T12:56:12.396Z,8.13
2018-07-25T12:58:40.289Z,7.47
2018-07-25T13:01:08.871Z,7.43
2018-07-25T13:03:36.603Z,8.17
2018-07-25T13:06:04.938Z,8.37
2018-07-25T13:08:32.479Z,7.50
2018-07-25T13:11:00.937Z,8.63
2018-07-25T13:13:29.135Z,7.60
2018-07-25T13:15:56.805Z,6.50
2018-07-25T13:18:25.372Z,7.53
2018-07-25T13:20:52.962Z,7.50
2018-07-25T13:23:20.808Z,7.70
2018-07-25T13:25:49.537Z,8.03
2018-07-25T13:28:17.981Z,8.50
2018-07-25T13:30:45.495Z,7.63
2018-07-25T13:33:13.128Z,7.37
2018-07-25T13:35:41.456Z,7.30
2018-07-25T13:38:09.009Z,7.37
2018-07-25T13:40:36.676Z,7.20
2018-07-25T13:43:04.603Z,7.20
2018-07-25T13:45:32.785Z,7.73
2018-07-25T13:48:00.478Z,7.13
2018-07-25T13:50:27.960Z,7.30
2018-07-25T13:52:55.632Z,7.10
2018-07-25T13:55:23.176Z,7.30
2018-07-25T13:57:51.474Z,5.20
2018-07-25T14:00:19.044Z,6.03
2018-07-25T14:02:46.580Z,6.23
2018-07-25T14:05:14.799Z,5.80
2018-07-25T14:07:42.339Z,6.80
2018-07-25T14:10:09.865Z,6.87
2018-07-25T14:12:37.919Z,6.70
2018-07-25T14:15:05.912Z,6.30
2018-07-25T14:17:33.937Z,6.47
2018-07-25T14:20:01.467Z,6.40
2018-07-25T14:22:29.408Z,6.30
2018-07-25T14:24:57.194Z,5.60
2018-07-25T14:27:25.432Z,5.20
2018-07-25T14:29:53.555Z,4.70
2018-07-25T14:32:21.212Z,6.00
2018-07-25T14:34:49.116Z,4.90
2018-07-25T14:37:16.624Z,5.53
2018-07-25T14:39:44.690Z,5.50
2018-07-25T14:42:12.592Z,5.50
2018-07-25T14:44:40.559Z,5.87
2018-07-25T14:47:08.877Z,6.17
2018-07-25T14:49:36.360Z,5.97
2018-07-25T14:52:04.648Z,6.10
2018-07-25T14:54:32.635Z,5.70
2018-07-25T14:57:00.650Z,6.60
2018-07-25T14:59:28.142Z,6.03
2018-07-25T15:01:55.667Z,6.27
2018-07-25T15:04:23.215Z,6.60
2018-07-25T15:06:50.763Z,6.17
2018-07-25T15:09:18.352Z,6.63
2018-07-25T15:11:45.976Z,7.50
2018-07-25T15:14:13.888Z,7.33
2018-07-25T15:16:42.244Z,6.60
2018-07-25T15:19:10.313Z,6.03
2018-07-25T15:21:38.232Z,6.67
2018-07-25T15:24:06.864Z,6.87
2018-07-25T15:26:34.857Z,7.10
2018-07-25T15:29:03.795Z,7.40
2018-07-25T15:31:31.711Z,6.80
2018-07-25T15:33:59.845Z,7.10
2018-07-25T15:36:40.846Z,6.80
2018-07-25T15:39:12.697Z,10.30
2018-07-25T15:41:41.156Z,7.57
2018-07-25T15:44:09.556Z,8.70
2018-07-25T15:46:37.167Z,6.80
2018-07-25T15:49:05.080Z,9.17
2018-07-25T15:51:32.705Z,7.43
2018-07-25T15:54:00.166Z,7.70
2018-07-25T15:56:28.084Z,7.67
2018-07-25T15:58:55.771Z,7.27
2018-07-25T16:01:23.952Z,8.30
2018-07-25T16:03:52.876Z,8.30
2018-07-25T16:06:21.560Z,7.87
2018-07-25T16:08:50.043Z,8.10
2018-07-25T16:11:18.350Z,7.97
2018-07-25T16:13:47.008Z,7.43
2018-07-25T16:16:15.544Z,9.07
2018-07-25T16:18:44.774Z,9.60
2018-07-25T16:21:13.222Z,7.83
2018-07-25T16:23:41.398Z,7.40
2018-07-25T16:26:10.139Z,7.07
2018-07-25T16:28:38.643Z,6.20
2018-07-25T16:31:07.696Z,8.50
2018-07-25T16:33:35.755Z,8.30
2018-07-25T16:36:04.375Z,8.30
2018-07-25T16:38:34.156Z,9.97
2018-07-25T16:41:01.848Z,6.90
2018-07-25T16:43:30.310Z,6.03
2018-07-25T16:45:58.213Z,7.17
2018-07-25T16:48:26.131Z,7.93
2018-07-25T16:50:54.208Z,7.07
2018-07-25T16:53:23.512Z,8.70
2018-07-25T16:55:51.960Z,9.80
2018-07-25T16:58:20.170Z,7.57
2018-07-25T17:00:47.914Z,8.00
2018-07-25T17:03:15.737Z,7.23
2018-07-25T17:05:44.188Z,5.80
2018-07-25T17:08:12.659Z,8.67
2018-07-25T17:10:41.099Z,8.80
2018-07-25T17:13:09.480Z,8.77
2018-07-25T17:15:38.605Z,7.50
2018-07-25T17:18:07.052Z,8.80
2018-07-25T17:20:35.407Z,7.50
2018-07-25T17:23:05.240Z,8.23
2018-07-25T17:25:33.599Z,8.40
2018-07-25T17:28:02.030Z,8.43
2018-07-25T17:30:30.206Z,9.73
2018-07-25T17:32:58.139Z,9.27
2018-07-25T17:35:26.873Z,7.90
2018-07-25T17:37:54.449Z,7.47
2018-07-25T17:40:21.993Z,7.70
2018-07-25T17:42:49.619Z,8.10
2018-07-25T17:45:17.554Z,8.57
2018-07-25T17:47:45.784Z,10.37
2018-07-25T17:50:13.315Z,9.50
2018-07-25T17:52:41.221Z,8.73
2018-07-25T17:55:08.780Z,8.00
2018-07-25T17:57:37.504Z,7.70
2018-07-25T18:00:07.730Z,7.70
2018-07-25T18:02:35.490Z,8.63
2018-07-25T18:05:03.398Z,8.53
2018-07-25T18:07:31.741Z,8.37
2018-07-25T18:09:59.953Z,7.00
2018-07-25T18:12:28.835Z,7.90
2018-07-25T18:14:57.389Z,7.30
2018-07-25T18:17:26.102Z,7.70
2018-07-25T18:19:54.078Z,6.97
2018-07-25T18:22:22.643Z,7.63
2018-07-25T18:24:50.643Z,7.80
2018-07-25T18:27:19.535Z,7.03
2018-07-25T18:29:48.552Z,6.10
2018-07-25T18:32:17.054Z,6.73
2018-07-25T18:34:45.382Z,8.10
2018-07-25T18:37:14.193Z,9.20
2018-07-25T18:39:42.882Z,7.63
2018-07-25T18:42:10.820Z,9.70
2018-07-25T18:44:39.342Z,11.53
2018-07-25T18:47:09.049Z,10.70
2018-07-25T18:49:37.232Z,11.80
2018-07-25T18:52:05.534Z,12.60
2018-07-25T18:54:33.422Z,12.80
2018-07-25T18:57:01.206Z,11.37
2018-07-25T18:59:28.681Z,9.40
2018-07-25T19:01:57.014Z,7.67
2018-07-25T19:04:25.681Z,9.37
2018-07-25T19:06:54.055Z,7.70
2018-07-25T19:09:22.747Z,7.13
2018-07-25T19:11:51.758Z,7.57
2018-07-25T19:14:27.432Z,8.17
2018-07-25T19:16:55.283Z,8.40
2018-07-25T19:19:24.147Z,7.20
2018-07-25T19:21:53.097Z,9.03
2018-07-25T19:24:21.865Z,9.40
2018-07-25T19:26:50.633Z,9.83
2018-07-25T19:29:18.596Z,9.57
2018-07-25T19:31:47.115Z,8.00
2018-07-25T19:34:14.623Z,9.27
2018-07-25T19:36:42.826Z,7.97
2018-07-25T19:39:11.056Z,9.00
2018-07-25T19:41:38.658Z,8.00
2018-07-25T19:44:06.657Z,8.80
2018-07-25T19:46:34.267Z,8.17
2018-07-25T19:49:01.817Z,8.53
2018-07-25T19:51:29.494Z,8.60
2018-07-25T19:53:57.008Z,7.70
2018-07-25T19:56:24.598Z,7.97
2018-07-25T19:58:52.143Z,6.70
2018-07-25T20:01:20.403Z,6.07
2018-07-25T20:03:48.321Z,5.93
2018-07-25T20:06:15.979Z,5.67
2018-07-25T20:08:43.953Z,6.00
2018-07-25T20:11:11.839Z,7.10
2018-07-25T20:13:45.304Z,8.37
2018-07-25T20:16:12.818Z,7.20
2018-07-25T20:18:41.056Z,7.57
2018-07-25T20:21:09.024Z,6.40
2018-07-25T20:23:37.015Z,5.90
2018-07-25T20:26:05.211Z,4.73
2018-07-25T20:28:33.083Z,4.83
2018-07-25T20:31:00.947Z,5.17
2018-07-25T20:33:28.475Z,6.27
2018-07-25T20:35:56.096Z,5.67
2018-07-25T20:38:24.382Z,4.67
2018-07-25T20:40:52.604Z,5.70
2018-07-25T20:43:20.609Z,5.97
2018-07-25T20:45:48.680Z,7.10
2018-07-25T20:48:16.200Z,6.90
2018-07-25T20:50:43.792Z,7.27
2018-07-25T20:53:11.439Z,6.97
2018-07-25T20:55:39.003Z,6.97
2018-07-25T20:58:06.712Z,6.90
2018-07-25T21:00:35.722Z,7.67
2018-07-25T21:03:05.002Z,6.40
2018-07-25T21:05:34.699Z,6.80
2018-07-25T21:08:02.981Z,6.80
2018-07-25T21:10:31.920Z,6.93
2018-07-25T21:12:59.787Z,7.27
2018-07-25T21:15:27.304Z,7.10
2018-07-25T21:17:54.871Z,7.37
2018-07-25T21:20:23.347Z,7.23
2018-07-25T21:22:52.223Z,7.30
2018-07-25T21:25:20.479Z,7.30
2018-07-25T21:27:48.703Z,7.17
2018-07-25T21:30:16.611Z,6.70
2018-07-25T21:32:44.279Z,7.03
2018-07-25T21:35:12.795Z,7.30
2018-07-25T21:37:40.817Z,6.43
2018-07-25T21:40:08.370Z,6.53
2018-07-25T21:42:35.866Z,6.87
2018-07-25T21:45:05.345Z,5.70
2018-07-25T21:47:32.850Z,5.60
2018-07-25T21:50:01.057Z,7.27
2018-07-25T21:52:28.590Z,5.63
2018-07-25T21:54:56.547Z,7.13
2018-07-25T21:57:24.488Z,5.67
2018-07-25T21:59:52.334Z,6.50
2018-07-25T22:02:19.840Z,7.43
2018-07-25T22:04:47.875Z,7.40
2018-07-25T22:07:16.632Z,6.00
2018-07-25T22:09:44.699Z,5.77
2018-07-25T22:12:12.699Z,5.90
2018-07-25T22:14:40.195Z,8.50
2018-07-25T22:17:08.272Z,7.77
2018-07-25T22:19:35.801Z,7.93
2018-07-25T22:22:04.080Z,7.20
2018-07-25T22:24:31.922Z,10.33
2018-07-25T22:26:59.789Z,8.70
2018-07-25T22:29:27.736Z,7.40
2018-07-25T22:31:55.283Z,7.70
2018-07-25T22:34:22.824Z,7.00
2018-07-25T22:36:50.747Z,5.30
2018-07-25T22:39:18.607Z,8.13
2018-07-25T22:41:46.811Z,8.37
2018-07-25T22:44:14.856Z,8.23
2018-07-25T22:46:42.708Z,7.73
2018-07-25T22:49:10.232Z,7.10
2018-07-25T22:51:37.769Z,6.70
2018-07-25T22:54:05.867Z,7.07
2018-07-25T22:56:33.392Z,6.30
2018-07-25T22:59:00.912Z,5.70
2018-07-25T23:01:28.874Z,7.60
2018-07-25T23:03:57.832Z,5.80
2018-07-25T23:06:25.336Z,5.13
2018-07-25T23:08:52.839Z,5.43
2018-07-25T23:11:20.382Z,6.47
2018-07-25T23:13:49.062Z,6.10
2018-07-25T23:16:17.131Z,7.17
2018-07-25T23:18:45.571Z,5.30
2018-07-25T23:21:14.067Z,7.60
2018-07-25T23:23:42.962Z,7.27
2018-07-25T23:26:11.256Z,6.93
2018-07-25T23:28:39.303Z,6.37
2018-07-25T23:31:06.808Z,7.00
2018-07-25T23:33:34.753Z,6.40
2018-07-25T23:36:02.275Z,10.40
2018-07-25T23:38:30.602Z,7.33
2018-07-25T23:40:58.873Z,8.93
2018-07-25T23:43:26.887Z,6.07
2018-07-25T23:45:54.410Z,8.67
2018-07-25T23:48:22.235Z,8.80
2018-07-25T23:50:49.775Z,6.90
2018-07-25T23:53:17.744Z,7.17
2018-07-25T23:55:45.261Z,5.10
2018-07-25T23:58:12.775Z,5.10
